sensor_id;sensor_type;location;lat;lon;timestamp;P1;durP1;ratioP1;P2;durP2;ratioP2
4078;SDS011;2054;47.858;11.156;2023-07-16T02:45:35;6.57;;;5.57;;
4078;SDS011;2054;47.858;11.156;2023-07-16T02:48:04;7.85;;;5.70;;
4078;SDS011;2054;47.858;11.156;2023-07-16T02:50:33;8.20;;;5.53;;
4078;SDS011;2054;47.858;11.156;2023-07-16T02:53:00;6.95;;;5.78;;
4078;SDS011;2054;47.858;11.156;2023-07-16T02:55:27;6.95;;;5.70;;
4078;SDS011;2054;47.858;11.156;2023-07-16T02:57:54;8.02;;;5.90;;
4078;SDS011;2054;47.858;11.156;2023-07-16T03:00:21;7.82;;;6.13;;
4078;SDS011;2054;47.858;11.156;2023-07-16T03:02:50;8.60;;;6.00;;
4078;SDS011;2054;47.858;11.156;2023-07-16T03:05:17;6.97;;;5.60;;
4078;SDS011;2054;47.858;11.156;2023-07-16T03:07:44;7.88;;;6.50;;
4078;SDS011;2054;47.858;11.156;2023-07-16T03:10:11;8.90;;;6.30;;
4078;SDS011;2054;47.858;11.156;2023-07-16T03:12:38;7.78;;;6.15;;
4078;SDS011;2054;47.858;11.156;2023-07-16T03:15:05;7.82;;;6.38;;
4078;SDS011;2054;47.858;11.156;2023-07-16T03:17:33;8.18;;;6.43;;
4078;SDS011;2054;47.858;11.156;2023-07-16T03:20:01;10.30;;;6.68;;
4078;SDS011;2054;47.858;11.156;2023-07-16T03:22:30;7.45;;;6.38;;
4078;SDS011;2054;47.858;11.156;2023-07-16T03:24:57;11.45;;;6.40;;
4078;SDS011;2054;47.858;11.156;2023-07-16T03:27:24;10.18;;;6.65;;
4078;SDS011;2054;47.858;11.156;2023-07-16T03:29:51;14.68;;;7.03;;
4078;SDS011;2054;47.858;11.156;2023-07-16T03:32:18;9.27;;;6.80;;
4078;SDS011;2054;47.858;11.156;2023-07-16T03:34:45;12.50;;;7.03;;
4078;SDS011;2054;47.858;11.156;2023-07-16T03:37:14;8.43;;;6.78;;
4078;SDS011;2054;47.858;11.156;2023-07-16T03:39:41;11.68;;;7.22;;
4078;SDS011;2054;47.858;11.156;2023-07-16T03:42:08;9.98;;;7.10;;
4078;SDS011;2054;47.858;11.156;2023-07-16T03:44:34;12.38;;;6.32;;
4078;SDS011;2054;47.858;11.156;2023-07-16T03:47:01;7.45;;;6.53;;
4078;SDS011;2054;47.858;11.156;2023-07-16T03:49:29;8.57;;;6.05;;
4078;SDS011;2054;47.858;11.156;2023-07-16T03:51:56;4.85;;;3.92;;
4078;SDS011;2054;47.858;11.156;2023-07-16T03:54:24;4.15;;;3.75;;
4078;SDS011;2054;47.858;11.156;2023-07-16T03:56:51;4.00;;;3.60;;
4078;SDS011;2054;47.858;11.156;2023-07-16T03:59:18;4.45;;;3.67;;
4078;SDS011;2054;47.858;11.156;2023-07-16T04:01:45;4.13;;;3.42;;
4078;SDS011;2054;47.858;11.156;2023-07-16T04:04:12;5.72;;;3.67;;
4078;SDS011;2054;47.858;11.156;2023-07-16T04:06:38;4.07;;;3.45;;
4078;SDS011;2054;47.858;11.156;2023-07-16T04:09:05;5.68;;;3.80;;
4078;SDS011;2054;47.858;11.156;2023-07-16T04:11:34;6.95;;;4.20;;
4078;SDS011;2054;47.858;11.156;2023-07-16T04:14:00;5.82;;;4.00;;
4078;SDS011;2054;47.858;11.156;2023-07-16T04:16:27;4.82;;;3.60;;
4078;SDS011;2054;47.858;11.156;2023-07-16T04:18:54;3.97;;;3.33;;
4078;SDS011;2054;47.858;11.156;2023-07-16T04:21:21;4.95;;;3.97;;
4078;SDS011;2054;47.858;11.156;2023-07-16T04:23:48;4.47;;;3.28;;
4078;SDS011;2054;47.858;11.156;2023-07-16T04:26:15;6.63;;;3.90;;
4078;SDS011;2054;47.858;11.156;2023-07-16T04:28:43;3.88;;;3.47;;
4078;SDS011;2054;47.858;11.156;2023-07-16T04:31:10;3.95;;;3.55;;
4078;SDS011;2054;47.858;11.156;2023-07-16T04:33:37;5.47;;;4.10;;
4078;SDS011;2054;47.858;11.156;2023-07-16T04:36:04;4.50;;;3.58;;
4078;SDS011;2054;47.858;11.156;2023-07-16T04:38:31;3.97;;;3.55;;
4078;SDS011;2054;47.858;11.156;2023-07-16T04:40:58;5.03;;;3.40;;
4078;SDS011;2054;47.858;11.156;2023-07-16T04:43:25;4.38;;;3.17;;
4078;SDS011;2054;47.858;11.156;2023-07-16T04:45:53;4.72;;;3.10;;
4078;SDS011;2054;47.858;11.156;2023-07-16T04:48:20;3.28;;;2.90;;
4078;SDS011;2054;47.858;11.156;2023-07-16T04:50:47;5.13;;;2.90;;
4078;SDS011;2054;47.858;11.156;2023-07-16T04:53:14;4.93;;;3.00;;
4078;SDS011;2054;47.858;11.156;2023-07-16T04:55:43;5.13;;;2.70;;
4078;SDS011;2054;47.858;11.156;2023-07-16T04:58:10;3.22;;;2.92;;
4078;SDS011;2054;47.858;11.156;2023-07-16T05:00:38;3.38;;;2.88;;
4078;SDS011;2054;47.858;11.156;2023-07-16T05:03:06;5.05;;;2.95;;
4078;SDS011;2054;47.858;11.156;2023-07-16T05:05:33;3.15;;;2.67;;
4078;SDS011;2054;47.858;11.156;2023-07-16T05:08:00;3.17;;;2.47;;
4078;SDS011;2054;47.858;11.156;2023-07-16T05:10:27;2.72;;;2.53;;
4078;SDS011;2054;47.858;11.156;2023-07-16T05:12:54;5.57;;;2.55;;
4078;SDS011;2054;47.858;11.156;2023-07-16T05:15:21;2.50;;;2.28;;
4078;SDS011;2054;47.858;11.156;2023-07-16T05:17:48;2.92;;;2.58;;
4078;SDS011;2054;47.858;11.156;2023-07-16T05:20:17;2.85;;;2.58;;
4078;SDS011;2054;47.858;11.156;2023-07-16T05:22:43;2.88;;;2.60;;
4078;SDS011;2054;47.858;11.156;2023-07-16T05:25:10;3.22;;;2.60;;
4078;SDS011;2054;47.858;11.156;2023-07-16T05:27:37;3.63;;;2.17;;
4078;SDS011;2054;47.858;11.156;2023-07-16T05:30:05;2.92;;;2.65;;
4078;SDS011;2054;47.858;11.156;2023-07-16T05:32:32;2.85;;;2.35;;
4078;SDS011;2054;47.858;11.156;2023-07-16T05:34:59;2.22;;;2.03;;
4078;SDS011;2054;47.858;11.156;2023-07-16T05:37:27;2.95;;;2.35;;
4078;SDS011;2054;47.858;11.156;2023-07-16T05:39:54;2.50;;;2.30;;
4078;SDS011;2054;47.858;11.156;2023-07-16T05:42:21;4.10;;;2.50;;
4078;SDS011;2054;47.858;11.156;2023-07-16T05:44:48;2.40;;;2.17;;
4078;SDS011;2054;47.858;11.156;2023-07-16T05:47:15;2.20;;;2.00;;
4078;SDS011;2054;47.858;11.156;2023-07-16T05:49:42;2.30;;;2.10;;
4078;SDS011;2054;47.858;11.156;2023-07-16T05:52:10;3.20;;;2.10;;
4078;SDS011;2054;47.858;11.156;2023-07-16T05:54:39;2.67;;;2.03;;
4078;SDS011;2054;47.858;11.156;2023-07-16T05:57:07;2.55;;;2.15;;
4078;SDS011;2054;47.858;11.156;2023-07-16T05:59:34;2.20;;;1.85;;
4078;SDS011;2054;47.858;11.156;2023-07-16T06:02:02;2.22;;;1.73;;
4078;SDS011;2054;47.858;11.156;2023-07-16T06:04:29;2.50;;;2.20;;
4078;SDS011;2054;47.858;11.156;2023-07-16T06:06:57;1.98;;;1.77;;
4078;SDS011;2054;47.858;11.156;2023-07-16T06:09:24;2.70;;;1.90;;
4078;SDS011;2054;47.858;11.156;2023-07-16T06:11:53;2.15;;;1.95;;
4078;SDS011;2054;47.858;11.156;2023-07-16T06:14:19;1.92;;;1.83;;
4078;SDS011;2054;47.858;11.156;2023-07-16T06:16:46;2.33;;;2.00;;
4078;SDS011;2054;47.858;11.156;2023-07-16T06:19:14;3.35;;;2.13;;
4078;SDS011;2054;47.858;11.156;2023-07-16T06:21:41;2.20;;;1.90;;
4078;SDS011;2054;47.858;11.156;2023-07-16T06:24:08;4.88;;;2.00;;
4078;SDS011;2054;47.858;11.156;2023-07-16T06:26:35;2.10;;;1.90;;
4078;SDS011;2054;47.858;11.156;2023-07-16T06:29:04;2.15;;;1.80;;
4078;SDS011;2054;47.858;11.156;2023-07-16T06:31:31;1.80;;;1.70;;
4078;SDS011;2054;47.858;11.156;2023-07-16T06:33:58;2.60;;;1.40;;
4078;SDS011;2054;47.858;11.156;2023-07-16T06:36:25;2.72;;;1.67;;
4078;SDS011;2054;47.858;11.156;2023-07-16T06:38:52;2.15;;;1.98;;
4078;SDS011;2054;47.858;11.156;2023-07-16T06:41:19;2.38;;;1.60;;
4078;SDS011;2054;47.858;11.156;2023-07-16T06:43:46;3.33;;;1.92;;
4078;SDS011;2054;47.858;11.156;2023-07-16T06:46:14;2.42;;;1.50;;
4078;SDS011;2054;47.858;11.156;2023-07-16T06:48:41;2.20;;;1.88;;
4078;SDS011;2054;47.858;11.156;2023-07-16T06:51:08;1.70;;;1.60;;
4078;SDS011;2054;47.858;11.156;2023-07-16T06:53:35;1.92;;;1.48;;
4078;SDS011;2054;47.858;11.156;2023-07-16T06:56:02;1.70;;;1.60;;
4078;SDS011;2054;47.858;11.156;2023-07-16T06:58:32;2.63;;;1.48;;
4078;SDS011;2054;47.858;11.156;2023-07-16T07:00:59;2.35;;;1.70;;
4078;SDS011;2054;47.858;11.156;2023-07-16T07:03:28;1.65;;;1.55;;
4078;SDS011;2054;47.858;11.156;2023-07-16T07:05:55;2.70;;;1.90;;
4078;SDS011;2054;47.858;11.156;2023-07-16T07:08:22;1.75;;;1.65;;
4078;SDS011;2054;47.858;11.156;2023-07-16T07:10:49;3.42;;;1.40;;
4078;SDS011;2054;47.858;11.156;2023-07-16T07:13:16;2.45;;;1.40;;
4078;SDS011;2054;47.858;11.156;2023-07-16T07:15:43;1.45;;;1.30;;
4078;SDS011;2054;47.858;11.156;2023-07-16T07:18:10;1.50;;;1.38;;
4078;SDS011;2054;47.858;11.156;2023-07-16T07:20:38;1.85;;;1.27;;
4078;SDS011;2054;47.858;11.156;2023-07-16T07:23:05;4.10;;;1.52;;
4078;SDS011;2054;47.858;11.156;2023-07-16T07:25:32;1.60;;;1.27;;
4078;SDS011;2054;47.858;11.156;2023-07-16T07:27:59;3.75;;;1.88;;
4078;SDS011;2054;47.858;11.156;2023-07-16T07:30:26;1.73;;;1.45;;
4078;SDS011;2054;47.858;11.156;2023-07-16T07:32:53;2.00;;;1.60;;
4078;SDS011;2054;47.858;11.156;2023-07-16T07:35:20;2.03;;;1.52;;
4078;SDS011;2054;47.858;11.156;2023-07-16T07:37:48;1.70;;;1.60;;
4078;SDS011;2054;47.858;11.156;2023-07-16T07:40:15;3.30;;;1.70;;
4078;SDS011;2054;47.858;11.156;2023-07-16T07:42:42;2.25;;;1.85;;
4078;SDS011;2054;47.858;11.156;2023-07-16T07:45:09;5.57;;;1.63;;
4078;SDS011;2054;47.858;11.156;2023-07-16T07:47:37;2.17;;;1.70;;
4078;SDS011;2054;47.858;11.156;2023-07-16T07:50:04;2.67;;;1.60;;
4078;SDS011;2054;47.858;11.156;2023-07-16T07:52:31;1.77;;;1.60;;
4078;SDS011;2054;47.858;11.156;2023-07-16T07:55:00;1.70;;;1.60;;
4078;SDS011;2054;47.858;11.156;2023-07-16T07:57:26;1.73;;;1.48;;
4078;SDS011;2054;47.858;11.156;2023-07-16T07:59:53;1.90;;;1.35;;
4078;SDS011;2054;47.858;11.156;2023-07-16T08:02:22;2.22;;;1.30;;
4078;SDS011;2054;47.858;11.156;2023-07-16T08:04:50;1.65;;;1.55;;
4078;SDS011;2054;47.858;11.156;2023-07-16T08:07:19;1.70;;;1.60;;
4078;SDS011;2054;47.858;11.156;2023-07-16T08:09:46;2.42;;;1.33;;
4078;SDS011;2054;47.858;11.156;2023-07-16T08:12:15;2.13;;;1.80;;
4078;SDS011;2054;47.858;11.156;2023-07-16T08:14:41;2.00;;;1.80;;
4078;SDS011;2054;47.858;11.156;2023-07-16T08:17:09;3.20;;;1.42;;
4078;SDS011;2054;47.858;11.156;2023-07-16T08:19:35;1.80;;;1.60;;
4078;SDS011;2054;47.858;11.156;2023-07-16T08:22:03;1.52;;;1.42;;
4078;SDS011;2054;47.858;11.156;2023-07-16T08:24:30;1.90;;;1.70;;
4078;SDS011;2054;47.858;11.156;2023-07-16T08:26:57;2.13;;;1.92;;
4078;SDS011;2054;47.858;11.156;2023-07-16T08:29:25;1.77;;;1.60;;
4078;SDS011;2054;47.858;11.156;2023-07-16T08:31:52;1.70;;;1.60;;
4078;SDS011;2054;47.858;11.156;2023-07-16T08:34:19;2.42;;;1.60;;
4078;SDS011;2054;47.858;11.156;2023-07-16T08:36:46;1.75;;;1.65;;
4078;SDS011;2054;47.858;11.156;2023-07-16T08:39:12;2.13;;;1.75;;
4078;SDS011;2054;47.858;11.156;2023-07-16T08:41:40;1.92;;;1.73;;
4078;SDS011;2054;47.858;11.156;2023-07-16T08:44:07;2.50;;;2.30;;
4078;SDS011;2054;47.858;11.156;2023-07-16T08:46:36;2.17;;;2.08;;
4078;SDS011;2054;47.858;11.156;2023-07-16T08:49:03;2.08;;;1.88;;
4078;SDS011;2054;47.858;11.156;2023-07-16T08:51:34;1.90;;;1.80;;
4078;SDS011;2054;47.858;11.156;2023-07-16T08:54:02;1.60;;;1.50;;
4078;SDS011;2054;47.858;11.156;2023-07-16T08:56:29;16.05;;;2.42;;
4078;SDS011;2054;47.858;11.156;2023-07-16T08:58:56;1.77;;;1.63;;
4078;SDS011;2054;47.858;11.156;2023-07-16T09:01:24;1.65;;;1.50;;
4078;SDS011;2054;47.858;11.156;2023-07-16T09:03:53;2.17;;;1.70;;
4078;SDS011;2054;47.858;11.156;2023-07-16T09:06:20;2.15;;;1.73;;
4078;SDS011;2054;47.858;11.156;2023-07-16T09:08:47;1.60;;;1.50;;
4078;SDS011;2054;47.858;11.156;2023-07-16T09:11:14;1.83;;;1.73;;
4078;SDS011;2054;47.858;11.156;2023-07-16T09:13:46;2.67;;;1.70;;
4078;SDS011;2054;47.858;11.156;2023-07-16T09:16:13;1.88;;;1.60;;
4078;SDS011;2054;47.858;11.156;2023-07-16T09:18:42;2.22;;;1.60;;
4078;SDS011;2054;47.858;11.156;2023-07-16T09:21:12;2.00;;;1.90;;
4078;SDS011;2054;47.858;11.156;2023-07-16T09:23:39;2.05;;;1.77;;
4078;SDS011;2054;47.858;11.156;2023-07-16T09:26:07;1.70;;;1.60;;
4078;SDS011;2054;47.858;11.156;2023-07-16T09:28:34;1.80;;;1.70;;
4078;SDS011;2054;47.858;11.156;2023-07-16T09:31:04;1.88;;;1.77;;
4078;SDS011;2054;47.858;11.156;2023-07-16T09:33:32;2.67;;;1.60;;
4078;SDS011;2054;47.858;11.156;2023-07-16T09:35:59;1.70;;;1.60;;
4078;SDS011;2054;47.858;11.156;2023-07-16T09:38:29;1.85;;;1.70;;
4078;SDS011;2054;47.858;11.156;2023-07-16T09:40:56;1.70;;;1.60;;
4078;SDS011;2054;47.858;11.156;2023-07-16T09:43:24;2.13;;;1.92;;
4078;SDS011;2054;47.858;11.156;2023-07-16T09:45:51;1.98;;;1.77;;
4078;SDS011;2054;47.858;11.156;2023-07-16T09:48:17;4.18;;;1.75;;
4078;SDS011;2054;47.858;11.156;2023-07-16T09:50:46;2.00;;;1.80;;
4078;SDS011;2054;47.858;11.156;2023-07-16T09:53:18;6.93;;;1.90;;
4078;SDS011;2054;47.858;11.156;2023-07-16T09:55:47;2.08;;;1.73;;
4078;SDS011;2054;47.858;11.156;2023-07-16T09:58:17;2.85;;;1.63;;
4078;SDS011;2054;47.858;11.156;2023-07-16T10:00:45;1.88;;;1.77;;
4078;SDS011;2054;47.858;11.156;2023-07-16T10:03:14;2.20;;;1.98;;
4078;SDS011;2054;47.858;11.156;2023-07-16T10:05:42;2.40;;;2.10;;
4078;SDS011;2054;47.858;11.156;2023-07-16T10:08:15;3.88;;;1.95;;
4078;SDS011;2054;47.858;11.156;2023-07-16T10:10:43;2.47;;;1.90;;
4078;SDS011;2054;47.858;11.156;2023-07-16T10:13:14;2.25;;;1.90;;
4078;SDS011;2054;47.858;11.156;2023-07-16T10:15:52;2.45;;;2.25;;
4078;SDS011;2054;47.858;11.156;2023-07-16T10:18:23;2.45;;;1.73;;
4078;SDS011;2054;47.858;11.156;2023-07-16T10:20:52;1.60;;;1.50;;
4078;SDS011;2054;47.858;11.156;2023-07-16T10:23:19;1.73;;;1.63;;
4078;SDS011;2054;47.858;11.156;2023-07-16T10:25:57;3.60;;;1.83;;
4078;SDS011;2054;47.858;11.156;2023-07-16T10:28:28;2.20;;;1.98;;
4078;SDS011;2054;47.858;11.156;2023-07-16T10:30:55;1.52;;;1.42;;
4078;SDS011;2054;47.858;11.156;2023-07-16T10:33:22;3.17;;;1.90;;
4078;SDS011;2054;47.858;11.156;2023-07-16T10:35:49;1.88;;;1.70;;
4078;SDS011;2054;47.858;11.156;2023-07-16T10:38:28;4.20;;;1.75;;
4078;SDS011;2054;47.858;11.156;2023-07-16T10:40:55;1.80;;;1.65;;
4078;SDS011;2054;47.858;11.156;2023-07-16T10:43:23;2.25;;;1.60;;
4078;SDS011;2054;47.858;11.156;2023-07-16T10:45:54;1.80;;;1.70;;
4078;SDS011;2054;47.858;11.156;2023-07-16T10:48:24;2.17;;;1.98;;
4078;SDS011;2054;47.858;11.156;2023-07-16T10:50:52;1.73;;;1.63;;
4078;SDS011;2054;47.858;11.156;2023-07-16T10:53:19;1.90;;;1.80;;
4078;SDS011;2054;47.858;11.156;2023-07-16T10:55:46;3.05;;;1.70;;
4078;SDS011;2054;47.858;11.156;2023-07-16T10:58:13;1.70;;;1.60;;
4078;SDS011;2054;47.858;11.156;2023-07-16T11:00:42;1.65;;;1.55;;
4078;SDS011;2054;47.858;11.156;2023-07-16T11:03:15;1.52;;;1.42;;
4078;SDS011;2054;47.858;11.156;2023-07-16T11:05:44;2.05;;;1.70;;
4078;SDS011;2054;47.858;11.156;2023-07-16T11:08:21;1.98;;;1.60;;
4078;SDS011;2054;47.858;11.156;2023-07-16T11:10:52;1.88;;;1.48;;
4078;SDS011;2054;47.858;11.156;2023-07-16T11:13:24;1.70;;;1.60;;
4078;SDS011;2054;47.858;11.156;2023-07-16T11:15:52;1.75;;;1.60;;
4078;SDS011;2054;47.858;11.156;2023-07-16T11:18:21;1.70;;;1.60;;
4078;SDS011;2054;47.858;11.156;2023-07-16T11:20:49;1.55;;;1.45;;
4078;SDS011;2054;47.858;11.156;2023-07-16T11:23:17;1.70;;;1.60;;
4078;SDS011;2054;47.858;11.156;2023-07-16T11:25:45;1.75;;;1.65;;
4078;SDS011;2054;47.858;11.156;2023-07-16T11:28:13;2.00;;;1.65;;
4078;SDS011;2054;47.858;11.156;2023-07-16T11:30:40;1.85;;;1.63;;
4078;SDS011;2054;47.858;11.156;2023-07-16T11:33:09;1.63;;;1.52;;
4078;SDS011;2054;47.858;11.156;2023-07-16T11:35:39;1.60;;;1.50;;
4078;SDS011;2054;47.858;11.156;2023-07-16T11:38:06;1.70;;;1.60;;
4078;SDS011;2054;47.858;11.156;2023-07-16T11:40:33;2.20;;;1.50;;
4078;SDS011;2054;47.858;11.156;2023-07-16T11:43:07;1.95;;;1.77;;
4078;SDS011;2054;47.858;11.156;2023-07-16T11:45:35;2.13;;;1.73;;
4078;SDS011;2054;47.858;11.156;2023-07-16T11:48:02;2.22;;;1.58;;
4078;SDS011;2054;47.858;11.156;2023-07-16T11:50:29;2.53;;;1.95;;
4078;SDS011;2054;47.858;11.156;2023-07-16T11:52:58;3.42;;;1.85;;
4078;SDS011;2054;47.858;11.156;2023-07-16T11:55:27;3.53;;;1.80;;
4078;SDS011;2054;47.858;11.156;2023-07-16T11:57:53;1.73;;;1.63;;
4078;SDS011;2054;47.858;11.156;2023-07-16T12:00:22;1.85;;;1.75;;
4078;SDS011;2054;47.858;11.156;2023-07-16T12:02:49;2.08;;;1.60;;
4078;SDS011;2054;47.858;11.156;2023-07-16T12:05:17;2.20;;;2.00;;
4078;SDS011;2054;47.858;11.156;2023-07-16T12:07:46;1.80;;;1.70;;
4078;SDS011;2054;47.858;11.156;2023-07-16T12:10:14;2.65;;;2.42;;
4078;SDS011;2054;47.858;11.156;2023-07-16T12:12:42;2.78;;;1.80;;
4078;SDS011;2054;47.858;11.156;2023-07-16T12:15:09;2.10;;;1.98;;
4078;SDS011;2054;47.858;11.156;2023-07-16T12:17:37;2.13;;;1.92;;
4078;SDS011;2054;47.858;11.156;2023-07-16T12:20:04;3.40;;;2.00;;
4078;SDS011;2054;47.858;11.156;2023-07-16T12:22:32;1.98;;;1.83;;
4078;SDS011;2054;47.858;11.156;2023-07-16T12:25:01;1.75;;;1.65;;
4078;SDS011;2054;47.858;11.156;2023-07-16T12:27:30;2.13;;;1.80;;
4078;SDS011;2054;47.858;11.156;2023-07-16T12:29:57;3.10;;;1.95;;
4078;SDS011;2054;47.858;11.156;2023-07-16T12:32:24;2.53;;;1.83;;
4078;SDS011;2054;47.858;11.156;2023-07-16T12:34:51;2.58;;;2.38;;
4078;SDS011;2054;47.858;11.156;2023-07-16T12:37:21;1.77;;;1.67;;
4078;SDS011;2054;47.858;11.156;2023-07-16T12:39:48;2.05;;;1.90;;
4078;SDS011;2054;47.858;11.156;2023-07-16T12:42:15;2.83;;;2.42;;
4078;SDS011;2054;47.858;11.156;2023-07-16T12:44:43;3.00;;;2.20;;
4078;SDS011;2054;47.858;11.156;2023-07-16T12:47:11;2.22;;;2.00;;
4078;SDS011;2054;47.858;11.156;2023-07-16T12:49:38;2.53;;;2.28;;
4078;SDS011;2054;47.858;11.156;2023-07-16T12:52:05;2.35;;;2.15;;
4078;SDS011;2054;47.858;11.156;2023-07-16T12:54:32;2.08;;;1.98;;
4078;SDS011;2054;47.858;11.156;2023-07-16T12:56:59;2.83;;;2.00;;
4078;SDS011;2054;47.858;11.156;2023-07-16T12:59:28;2.28;;;1.90;;
4078;SDS011;2054;47.858;11.156;2023-07-16T13:01:56;2.20;;;2.00;;
4078;SDS011;2054;47.858;11.156;2023-07-16T13:04:23;4.82;;;2.10;;
4078;SDS011;2054;47.858;11.156;2023-07-16T13:06:50;2.58;;;2.00;;
4078;SDS011;2054;47.858;11.156;2023-07-16T13:09:17;1.92;;;1.83;;
4078;SDS011;2054;47.858;11.156;2023-07-16T13:11:44;2.20;;;2.00;;
4078;SDS011;2054;47.858;11.156;2023-07-16T13:14:11;2.10;;;2.00;;
4078;SDS011;2054;47.858;11.156;2023-07-16T13:16:37;2.45;;;2.25;;
4078;SDS011;2054;47.858;11.156;2023-07-16T13:19:06;2.92;;;1.83;;
4078;SDS011;2054;47.858;11.156;2023-07-16T13:21:33;2.33;;;2.13;;
4078;SDS011;2054;47.858;11.156;2023-07-16T13:23:59;3.05;;;2.30;;
4078;SDS011;2054;47.858;11.156;2023-07-16T13:26:27;2.08;;;1.88;;
4078;SDS011;2054;47.858;11.156;2023-07-16T13:28:54;2.97;;;2.08;;
4078;SDS011;2054;47.858;11.156;2023-07-16T13:31:21;2.35;;;2.15;;
4078;SDS011;2054;47.858;11.156;2023-07-16T13:33:48;3.22;;;2.13;;
4078;SDS011;2054;47.858;11.156;2023-07-16T13:36:17;2.45;;;2.25;;
4078;SDS011;2054;47.858;11.156;2023-07-16T13:38:43;2.40;;;2.20;;
4078;SDS011;2054;47.858;11.156;2023-07-16T13:41:10;1.98;;;1.88;;
4078;SDS011;2054;47.858;11.156;2023-07-16T13:43:37;2.25;;;2.00;;
4078;SDS011;2054;47.858;11.156;2023-07-16T13:46:04;3.05;;;1.90;;
4078;SDS011;2054;47.858;11.156;2023-07-16T13:48:32;1.80;;;1.60;;
4078;SDS011;2054;47.858;11.156;2023-07-16T13:50:59;3.60;;;2.20;;
4078;SDS011;2054;47.858;11.156;2023-07-16T13:53:28;2.60;;;2.40;;
4078;SDS011;2054;47.858;11.156;2023-07-16T13:55:54;2.30;;;2.10;;
4078;SDS011;2054;47.858;11.156;2023-07-16T13:58:22;2.13;;;1.83;;
4078;SDS011;2054;47.858;11.156;2023-07-16T14:00:49;2.50;;;2.10;;
4078;SDS011;2054;47.858;11.156;2023-07-16T14:03:16;2.65;;;2.28;;
4078;SDS011;2054;47.858;11.156;2023-07-16T14:05:43;2.50;;;2.30;;
4078;SDS011;2054;47.858;11.156;2023-07-16T14:08:10;3.47;;;2.30;;
4078;SDS011;2054;47.858;11.156;2023-07-16T14:10:38;2.17;;;1.92;;
4078;SDS011;2054;47.858;11.156;2023-07-16T14:13:05;3.00;;;2.30;;
4078;SDS011;2054;47.858;11.156;2023-07-16T14:15:32;2.85;;;2.30;;
4078;SDS011;2054;47.858;11.156;2023-07-16T14:17:59;4.35;;;2.17;;
4078;SDS011;2054;47.858;11.156;2023-07-16T14:20:26;2.50;;;2.28;;
4078;SDS011;2054;47.858;11.156;2023-07-16T14:22:56;2.35;;;2.15;;
4078;SDS011;2054;47.858;11.156;2023-07-16T14:25:23;3.55;;;2.40;;
4078;SDS011;2054;47.858;11.156;2023-07-16T14:27:52;2.80;;;2.60;;
4078;SDS011;2054;47.858;11.156;2023-07-16T14:30:18;2.40;;;2.20;;
4078;SDS011;2054;47.858;11.156;2023-07-16T14:32:51;2.55;;;2.05;;
4078;SDS011;2054;47.858;11.156;2023-07-16T14:35:18;2.60;;;2.40;;
4078;SDS011;2054;47.858;11.156;2023-07-16T14:37:47;2.60;;;2.40;;
4078;SDS011;2054;47.858;11.156;2023-07-16T14:40:15;2.30;;;2.10;;
4078;SDS011;2054;47.858;11.156;2023-07-16T14:42:42;3.53;;;2.00;;
4078;SDS011;2054;47.858;11.156;2023-07-16T14:45:11;3.63;;;1.92;;
4078;SDS011;2054;47.858;11.156;2023-07-16T14:47:39;3.53;;;2.38;;
4078;SDS011;2054;47.858;11.156;2023-07-16T14:50:07;3.08;;;2.30;;
4078;SDS011;2054;47.858;11.156;2023-07-16T14:52:34;2.17;;;2.00;;
4078;SDS011;2054;47.858;11.156;2023-07-16T14:55:02;2.60;;;2.40;;
4078;SDS011;2054;47.858;11.156;2023-07-16T14:57:29;2.30;;;2.10;;
4078;SDS011;2054;47.858;11.156;2023-07-16T14:59:59;2.88;;;2.63;;
4078;SDS011;2054;47.858;11.156;2023-07-16T15:02:27;2.13;;;2.03;;
4078;SDS011;2054;47.858;11.156;2023-07-16T15:04:54;2.50;;;2.30;;
4078;SDS011;2054;47.858;11.156;2023-07-16T15:07:21;2.33;;;2.20;;
4078;SDS011;2054;47.858;11.156;2023-07-16T15:09:47;2.40;;;2.20;;
4078;SDS011;2054;47.858;11.156;2023-07-16T15:12:14;2.60;;;2.13;;
4078;SDS011;2054;47.858;11.156;2023-07-16T15:14:41;2.30;;;2.15;;
4078;SDS011;2054;47.858;11.156;2023-07-16T15:17:10;3.80;;;2.00;;
4078;SDS011;2054;47.858;11.156;2023-07-16T15:19:39;2.40;;;2.17;;
4078;SDS011;2054;47.858;11.156;2023-07-16T15:22:06;3.92;;;2.15;;
4078;SDS011;2054;47.858;11.156;2023-07-16T15:24:34;2.40;;;2.20;;
4078;SDS011;2054;47.858;11.156;2023-07-16T15:27:02;2.50;;;2.30;;
4078;SDS011;2054;47.858;11.156;2023-07-16T15:29:29;3.28;;;2.70;;
4078;SDS011;2054;47.858;11.156;2023-07-16T15:31:56;2.97;;;2.42;;
4078;SDS011;2054;47.858;11.156;2023-07-16T15:34:23;2.97;;;2.28;;
4078;SDS011;2054;47.858;11.156;2023-07-16T15:36:52;2.72;;;1.95;;
4078;SDS011;2054;47.858;11.156;2023-07-16T15:39:18;2.50;;;2.30;;
4078;SDS011;2054;47.858;11.156;2023-07-16T15:41:46;2.50;;;2.30;;
4078;SDS011;2054;47.858;11.156;2023-07-16T15:44:13;2.50;;;2.30;;
4078;SDS011;2054;47.858;11.156;2023-07-16T15:46:40;2.22;;;2.13;;
4078;SDS011;2054;47.858;11.156;2023-07-16T15:49:07;2.67;;;2.47;;
4078;SDS011;2054;47.858;11.156;2023-07-16T15:51:34;2.58;;;2.08;;
4078;SDS011;2054;47.858;11.156;2023-07-16T15:54:02;2.65;;;2.28;;
4078;SDS011;2054;47.858;11.156;2023-07-16T15:56:31;2.67;;;2.47;;
4078;SDS011;2054;47.858;11.156;2023-07-16T15:58:57;2.30;;;2.10;;
4078;SDS011;2054;47.858;11.156;2023-07-16T16:01:25;5.47;;;2.85;;
4078;SDS011;2054;47.858;11.156;2023-07-16T16:03:52;3.05;;;2.22;;
4078;SDS011;2054;47.858;11.156;2023-07-16T16:06:22;2.40;;;2.20;;
4078;SDS011;2054;47.858;11.156;2023-07-16T16:08:49;3.92;;;2.33;;
4078;SDS011;2054;47.858;11.156;2023-07-16T16:11:18;2.42;;;2.22;;
4078;SDS011;2054;47.858;11.156;2023-07-16T16:13:46;3.65;;;2.50;;
4078;SDS011;2054;47.858;11.156;2023-07-16T16:16:13;2.47;;;2.28;;
4078;SDS011;2054;47.858;11.156;2023-07-16T16:18:41;2.58;;;2.38;;
4078;SDS011;2054;47.858;11.156;2023-07-16T16:21:08;2.75;;;2.50;;
4078;SDS011;2054;47.858;11.156;2023-07-16T16:23:36;3.35;;;2.17;;
4078;SDS011;2054;47.858;11.156;2023-07-16T16:26:03;2.47;;;2.28;;
4078;SDS011;2054;47.858;11.156;2023-07-16T16:28:32;2.90;;;2.40;;
4078;SDS011;2054;47.858;11.156;2023-07-16T16:30:59;3.22;;;2.00;;
4078;SDS011;2054;47.858;11.156;2023-07-16T16:33:26;2.72;;;2.53;;
4078;SDS011;2054;47.858;11.156;2023-07-16T16:35:53;3.03;;;2.30;;
4078;SDS011;2054;47.858;11.156;2023-07-16T16:38:20;3.13;;;2.30;;
4078;SDS011;2054;47.858;11.156;2023-07-16T16:40:47;2.92;;;2.40;;
4078;SDS011;2054;47.858;11.156;2023-07-16T16:43:14;5.50;;;2.50;;
4078;SDS011;2054;47.858;11.156;2023-07-16T16:45:43;5.20;;;2.53;;
4078;SDS011;2054;47.858;11.156;2023-07-16T16:48:13;2.35;;;2.20;;
4078;SDS011;2054;47.858;11.156;2023-07-16T16:50:41;2.38;;;2.17;;
4078;SDS011;2054;47.858;11.156;2023-07-16T16:53:08;2.80;;;2.60;;
4078;SDS011;2054;47.858;11.156;2023-07-16T16:55:35;2.28;;;2.17;;
4078;SDS011;2054;47.858;11.156;2023-07-16T16:58:02;3.83;;;3.08;;
4078;SDS011;2054;47.858;11.156;2023-07-16T17:00:30;3.00;;;2.55;;
4078;SDS011;2054;47.858;11.156;2023-07-16T17:02:58;2.33;;;2.13;;
4078;SDS011;2054;47.858;11.156;2023-07-16T17:05:26;2.47;;;2.28;;
4078;SDS011;2054;47.858;11.156;2023-07-16T17:07:54;2.70;;;2.50;;
4078;SDS011;2054;47.858;11.156;2023-07-16T17:10:22;2.47;;;2.28;;
4078;SDS011;2054;47.858;11.156;2023-07-16T17:12:49;2.72;;;2.33;;
4078;SDS011;2054;47.858;11.156;2023-07-16T17:15:17;2.40;;;2.20;;
4078;SDS011;2054;47.858;11.156;2023-07-16T17:17:44;2.63;;;2.42;;
4078;SDS011;2054;47.858;11.156;2023-07-16T17:20:13;3.03;;;2.47;;
4078;SDS011;2054;47.858;11.156;2023-07-16T17:22:40;2.58;;;2.40;;
4078;SDS011;2054;47.858;11.156;2023-07-16T17:25:08;2.92;;;2.70;;
4078;SDS011;2054;47.858;11.156;2023-07-16T17:27:36;2.70;;;2.50;;
4078;SDS011;2054;47.858;11.156;2023-07-16T17:30:03;3.13;;;2.83;;
4078;SDS011;2054;47.858;11.156;2023-07-16T17:32:31;2.88;;;2.50;;
4078;SDS011;2054;47.858;11.156;2023-07-16T17:34:58;2.80;;;2.53;;
4078;SDS011;2054;47.858;11.156;2023-07-16T17:37:27;3.15;;;2.85;;
4078;SDS011;2054;47.858;11.156;2023-07-16T17:39:56;2.72;;;2.53;;
4078;SDS011;2054;47.858;11.156;2023-07-16T17:42:23;2.80;;;2.60;;
4078;SDS011;2054;47.858;11.156;2023-07-16T17:44:50;2.88;;;2.67;;
4078;SDS011;2054;47.858;11.156;2023-07-16T17:47:19;2.88;;;2.67;;